Weather observations for the past three days for
Monticello White County Airport
Imperial (Metric)
Date Time (edt) Wind (mph) Vis. (mi.) Weather Sky Cond. Temperature (ºF) Relative Humidity Wind Chill (°F) Heat Index (°F) Pressure Precipitation (in)
Air Dwpt 6 hour altimeter (in) sea level (mb) 1 hr 3 hr 6 hr
Max. Min.
04 09:55 SW 5 10.00 Partly Cloudy SCT075 SCT090 82 72.3 72% 87 29.99 0.0
04 09:35 S 3 10.00 Fair CLR 80.2 71.8 75% 84 29.99 0.0
04 09:15 S 6 10.00 Fair CLR 78.6 71.4 79% 81 29.99 0.0
04 08:55 S 5 10.00 Fair CLR 78.1 71.1 79% 80 29.98 0.0
04 08:35 Calm 10.00 Fair CLR 77 70.3 80% 79 29.98 0.0
04 08:15 S 6 10.00 Fair CLR 75.2 70.2 84% 75 29.96 0.0
04 07:55 S 5 10.00 Fair CLR 74.3 70 76.5 71.4 86% 29.96 0.0
04 07:35 S 5 10.00 Fair CLR 73.6 69.8 88% 29.95 0.0
04 07:15 S 7 10.00 Fair CLR 73.6 70 89% 29.94 0.0
04 06:55 S 6 10.00 Fair CLR 73.9 70 88% 29.95 0.0
04 06:35 S 3 10.00 Fair CLR 73.9 69.8 87% 29.95 0.0
04 06:15 Calm 10.00 Fair CLR 72.3 69.4 91% 29.96 0.0
04 05:55 SW 3 10.00 Fair CLR 73.6 69.8 88% 29.96 0.0
04 05:35 Calm 10.00 Fair CLR 72.3 69.8 92% 29.96 0.0
04 05:15 Calm 10.00 Fair CLR 74.1 70.3 88% 29.95 0.0
04 04:55 SW 5 10.00 Fair CLR 73.9 70.3 89% 29.95 0.0
04 04:35 S 5 10.00 Fair CLR 74.3 70.2 87% 29.95 0.0
04 04:15 S 5 10.00 Fair CLR 75.2 70.3 85% 75 29.94 0.0
04 03:55 S 5 10.00 Fair CLR 75.2 70.2 84% 75 29.95 0.0
04 03:35 Calm 10.00 Fair CLR 75.9 70.7 84% 77 29.95 0.0
04 03:15 S 5 10.00 Fair CLR 75.4 70.2 84% 76 29.96 0.0
04 02:55 Calm 10.00 Fair CLR 75 69.8 84% 75 29.97 0.0
04 02:35 Calm 10.00 Fair CLR 75.7 69.4 81% 77 29.97 0.0
04 02:15 SE 3 10.00 Fair CLR 76.1 69.4 80% 77 29.97 0.0
04 01:55 Calm 10.00 Fair CLR 76.5 69.4 82.6 75.6 79% 78 29.98 0.0
04 01:35 SE 5 10.00 Partly Cloudy SCT120 76.8 69.3 78% 78 29.98 0.0
04 01:15 SE 5 10.00 Partly Cloudy SCT120 76.3 69.6 80% 77 29.98 0.0
04 00:55 SE 3 10.00 Fair CLR 76.5 69.6 79% 78 29.98 0.0
04 00:35 SE 3 10.00 Fair CLR 76.5 69.8 80% 78 29.98 0.0
04 00:15 Calm 10.00 Fair CLR 76.1 70.3 82% 77 29.98 0.0
03 23:55 E 3 10.00 Fair CLR 77 70.2 80% 79 29.97 0.0
03 23:35 Calm 10.00 Fair CLR 77 70.2 80% 79 29.98 0.0
03 23:15 E 3 10.00 Fair CLR 77.9 70 77% 80 29.98 0.0
03 22:55 E 5 10.00 Fair CLR 77.9 71.1 80% 80 29.98 0.0
03 22:35 E 5 10.00 Fair CLR 79 71.6 78% 82 29.97 0.0
03 22:15 E 6 10.00 Fair CLR 79.7 72.1 78% 83 29.96 0.0
03 21:55 SE 3 10.00 Fair CLR 81.5 71.6 72% 86 29.96 0.0
03 21:35 Calm 10.00 Fair CLR 80.4 73.6 80% 85 29.96 0.0
03 20:55 Calm 10.00 Fair CLR 79 75.2 88% 83 29.95 0.0
03 20:35 Calm 10.00 Fair CLR 80.1 75.2 85% 85 29.95 0.0
03 20:15 E 3 10.00 Fair CLR 81.5 75.2 81% 88 29.95 0.0
03 19:55 Calm 10.00 Partly Cloudy SCT120 82.8 75.6 95.4 80.4 79% 90 29.95 0.0 0.01
03 19:35 Calm 10.00 Mostly Cloudy SCT050 SCT090 BKN120 84 75.4 75% 92 29.94 0.0
03 19:15 Calm 10.00 Overcast BKN050 OVC090 83.1 73.9 74% 90 29.94 0.0
03 18:55 N 5 10.00 Light Rain SCT046 BKN050 OVC090 80.4 72.3 76% 85 29.94 0.0 0.01
03 18:35 NW 9 10.00 Light Rain OVC048 83.8 72.5 69% 90 29.94 0.0
03 18:15 Calm 10.00 Mostly Cloudy BKN050 92.3 72.5 53% 101 29.93 0.0
03 17:55 W 8 10.00 Partly Cloudy SCT050 93.4 70.9 48% 100 29.93 0.0
03 17:35 W 10 10.00 Partly Cloudy SCT055 94.5 70.2 45% 101 29.93 0.0
03 17:15 W 12 G 16 10.00 Fair CLR 94.3 69.6 45% 100 29.93 0.0
03 16:55 SW 10 G 17 10.00 Fair CLR 94.5 70.3 46% 101 29.93 0.0
03 16:35 SW 8 10.00 Fair CLR 95.2 70.9 45% 103 29.93 0.0
03 16:15 SW 14 G 18 10.00 Fair CLR 95.2 70.9 45% 103 29.93 0.0
03 15:55 SW 9 10.00 Fair CLR 95 70.9 46% 102 29.94 0.0
03 15:35 SW 9 10.00 Fair CLR 94.6 70.9 46% 102 29.95 0.0
03 15:15 SW 12 G 17 10.00 Fair CLR 94.1 71.8 48% 102 29.96 0.0
03 14:55 SW 9 10.00 Fair CLR 93.9 72 49% 102 29.97 0.0
03 14:35 SW 10 G 18 10.00 Fair CLR 94.1 72.7 50% 103 29.97 0.0
03 14:15 SW 9 10.00 Fair CLR 93.2 72.1 50% 101 29.98 0.0
03 13:55 SW 8 10.00 Fair CLR 92.8 72.5 92.8 74.5 52% 101 29.98 0.0
03 13:35 S 10 10.00 Fair CLR 92.3 72.5 53% 101 29.97 0.0
03 13:15 SW 6 10.00 Fair CLR 91.6 72.5 54% 100 29.97 0.0
03 12:55 S 6 10.00 Fair CLR 90.7 72.1 55% 98 29.98 0.0
03 12:35 S 7 10.00 Fair CLR 90.3 72.3 56% 98 29.99 0.0
03 12:15 SW 6 10.00 Fair CLR 89.4 71.8 56% 96 29.99 0.0
03 11:55 SW 9 10.00 Fair CLR 88.3 70.7 56% 94 29.99 0.0
03 11:35 SW 9 10.00 Fair CLR 88 71.4 58% 94 29.99 0.0
03 11:15 SW 8 10.00 Fair CLR 86.9 70.9 59% 92 30 0.0
03 10:55 SW 7 10.00 Fair CLR 85.6 71.2 62% 91 29.99 0.0
03 10:35 SW 7 10.00 Fair CLR 84.4 70.5 63% 89 29.99 0.0
03 10:15 S 9 10.00 Fair CLR 83.1 71.1 67% 88 29.99 0.0
03 09:55 S 7 10.00 Fair CLR 81.3 70.9 71% 85 30 0.0
03 09:35 S 7 10.00 Fair CLR 80.1 70.7 73% 83 30 0.0
03 09:15 S 6 10.00 Fair CLR 78.3 70 76% 81 30 0.0
03 08:55 S 6 10.00 Fair CLR 77.2 69.8 78% 79 30.01 0.0
03 08:35 S 5 10.00 Fair CLR 76.1 69.4 80% 77 30 0.0
03 08:15 S 6 10.00 Fair CLR 75 69.1 82% 75 30 0.0
03 07:55 S 6 10.00 Fair CLR 74.5 69.1 78.8 72.7 83% 30 0.0
03 07:35 S 5 10.00 Fair CLR 73.2 68.9 86% 30 0.0
03 07:15 S 3 10.00 Fair CLR 73.6 68.9 85% 30 0.0
03 06:55 S 3 10.00 Fair CLR 74.3 69.1 84% 29.99 0.0
03 06:35 S 3 10.00 Fair CLR 73.6 68.9 85% 29.99 0.0
03 06:15 S 6 10.00 Fair CLR 74.8 69.1 82% 29.99 0.0
03 05:55 S 5 10.00 Fair CLR 75.4 69.3 81% 76 29.99 0.0
03 05:35 S 3 10.00 Fair CLR 74.7 69.3 83% 29.99 0.0
03 05:15 S 3 10.00 Fair CLR 76.1 69.4 80% 77 29.98 0.0
03 04:55 S 3 10.00 Fair CLR 75.7 69.4 81% 77 29.99 0.0
03 04:35 SW 5 10.00 Fair CLR 76.1 69.8 81% 77 29.99 0.0
03 04:15 SW 5 10.00 Fair CLR 76.5 70 80% 78 29.98 0.0
03 03:55 SW 5 10.00 Fair CLR 76.8 70.5 81% 78 29.98 0.0
03 03:35 SW 3 10.00 Fair CLR 76.5 70.7 82% 78 29.98 0.0
03 03:15 S 6 10.00 Fair CLR 77.2 71.1 81% 79 29.98 0.0
03 02:55 S 6 10.00 Partly Cloudy SCT110 77.4 71.6 83% 79 29.98 0.0
03 02:35 S 5 10.00 Fair CLR 77.4 71.6 83% 79 29.98 0.0
03 02:15 S 5 10.00 Fair CLR 78.6 71.8 80% 81 29.98 0.0
03 01:55 S 6 10.00 Partly Cloudy SCT110 79 72 87.6 78.8 79% 82 29.97 0.0
03 01:35 S 6 10.00 Fair CLR 78.8 72.3 81% 82 29.97 0.0
03 01:15 S 5 10.00 Fair CLR 79.2 72.5 80% 83 29.97 0.0
03 00:55 S 5 10.00 Partly Cloudy SCT110 79.2 72.7 81% 83 29.97 0.0
03 00:35 S 5 10.00 Mostly Cloudy BKN110 79.3 72.7 80% 83 29.97 0.0
03 00:15 S 3 10.00 Fair CLR 79.3 72.7 80% 83 29.97 0.0
02 23:55 S 3 10.00 Fair CLR 80.1 72.7 78% 84 29.97 0.0
02 23:35 S 5 10.00 Fair CLR 80.4 72.7 77% 85 29.97 0.0
02 23:15 S 5 10.00 Fair CLR 79.7 72.7 79% 84 29.97 0.0
02 22:55 S 6 10.00 Fair CLR 81.5 72.7 75% 86 29.97 0.0
02 22:35 S 6 10.00 Fair CLR 81.7 72.7 74% 87 29.97 0.0
02 22:15 S 5 10.00 Fair CLR 81.9 72.9 74% 87 29.97 0.0
02 21:55 S 6 10.00 Fair CLR 82.4 73 73% 88 29.97 0.0
02 21:35 S 5 10.00 Fair CLR 82.4 72.9 73% 88 29.96 0.0
02 21:15 S 6 10.00 Fair CLR 82.8 72.7 72% 88 29.96 0.0
02 20:55 S 5 10.00 Fair CLR 83.3 72.9 71% 89 29.96 0.0
02 20:35 S 5 10.00 Fair CLR 84.2 73.2 70% 91 29.96 0.0
02 20:15 S 5 10.00 Partly Cloudy SCT090 85.8 72.7 65% 93 29.96 0.0
02 19:55 SW 6 10.00 Partly Cloudy SCT090 87.8 73 93.6 87.8 62% 95 29.96 0.0
02 19:35 SW 7 10.00 Fair CLR 88.9 73.6 61% 97 29.96 0.0
02 19:15 SW 6 10.00 Fair CLR 90 73.6 59% 99 29.96 0.0
02 18:55 SW 6 10.00 Fair CLR 91 73.6 57% 100 29.96 0.0
02 18:35 SW 9 10.00 Partly Cloudy SCT090 91.9 72.1 52% 100 29.96 0.0
02 18:15 SW 9 10.00 Mostly Cloudy BKN090 92.5 70.9 49% 99 29.96 0.0
02 17:55 SW 9 10.00 Fair CLR 92.8 72 51% 101 29.96 0.0
02 17:35 SW 12 G 17 10.00 Fair CLR 93.4 71.6 49% 101 29.96 0.0
02 17:15 SW 10 G 16 10.00 Fair CLR 93.2 71.1 49% 100 29.96 0.0
02 16:55 SW 10 10.00 Fair CLR 93.4 71.6 49% 101 29.97 0.0
02 16:35 SW 9 10.00 Fair CLR 93.2 71.8 50% 101 29.97 0.0
02 16:15 SW 10 10.00 Fair CLR 93.2 72.7 51% 102 29.98 0.0
02 15:55 SW 10 10.00 Fair CLR 93.2 73.4 53% 103 29.99 0.0
02 15:35 SW 8 10.00 Fair CLR 92.8 72.3 51% 101 29.99 0.0
02 15:15 SW 9 10.00 Fair CLR 92.7 72.5 52% 101 29.99 0.0
02 14:55 S 7 10.00 Fair CLR 92.3 72.5 53% 101 29.99 0.0
02 14:35 S 8 10.00 Fair CLR 91.9 72.7 53% 100 30 0.0
02 14:15 S 7 10.00 Fair CLR 91.4 73.4 56% 100 30 0.0
02 13:55 S 8 10.00 Fair CLR 90.5 73 90.7 73.6 57% 99 30.01 0.0
02 13:35 S 8 10.00 Fair CLR 90.3 73.4 58% 99 30.01 0.0
02 13:15 S 8 10.00 Fair CLR 89.8 72.9 58% 98 30.01 0.0
02 12:55 S 6 10.00 Fair CLR 89.2 73 59% 97 30.01 0.0
02 12:35 S 7 10.00 Fair CLR 88.5 72.1 58% 96 30.01 0.0
02 12:15 SW 8 10.00 Fair CLR 87.8 71.8 59% 94 30.02 0.0
02 11:55 SW 8 10.00 Fair CLR 86.9 70.9 59% 92 30.02 0.0
02 11:35 SW 7 10.00 Fair CLR 86.9 70.9 59% 92 30.02 0.0
02 11:15 SW 9 10.00 Fair CLR 86.2 70.7 60% 91 30.02 0.0
02 10:55 SW 7 10.00 Fair CLR 85.3 70.5 61% 90 30.02 0.0
02 10:35 SW 7 10.00 Fair CLR 84.2 70.5 64% 89 30.02 0.0
02 10:15 SW 6 10.00 Fair CLR 82.6 71.1 68% 87 30.02 0.0
02 09:55 S 8 10.00 Fair CLR 80.6 70.9 72% 84 30.02 0.0
02 09:35 S 6 10.00 Fair CLR 78.6 70.5 76% 81 30.03 0.0
02 09:15 S 6 10.00 Fair CLR 77.2 69.8 78% 79 30.03 0.0
02 08:55 S 5 10.00 Fair CLR 75.9 69.8 81% 77 30.04 0.0
02 08:35 S 3 10.00 Fair CLR 74.7 69.1 83% 30.04 0.0
02 08:15 S 5 10.00 Fair CLR 73.9 68.5 83% 30.04 0.0
02 07:55 S 3 10.00 Fair CLR 73.4 68.4 77 72.1 84% 30.03 0.0
02 07:35 S 5 10.00 Fair CLR 73 68.4 85% 30.03 0.0
02 07:15 S 5 10.00 Fair CLR 72.5 68.4 87% 30.03 0.0
02 06:55 SW 3 10.00 Fair CLR 72.5 68.5 87% 30.03 0.0
02 06:35 S 5 10.00 Fair CLR 72.7 68.9 88% 30.02 0.0
02 06:15 S 5 10.00 Fair CLR 73 68.9 87% 30.02 0.0
02 05:55 S 6 10.00 Fair CLR 73 68.9 87% 30.01 0.0
02 05:35 S 5 10.00 Fair CLR 72.7 68.9 88% 30.01 0.0
02 05:15 S 5 10.00 Fair CLR 73.6 69.1 86% 30.01 0.0
02 04:55 S 5 10.00 Fair CLR 74.3 69.1 84% 30.01 0.0
02 04:15 SW 5 10.00 Fair CLR 73.8 69.6 87% 30.01 0.0
02 03:55 S 3 10.00 Fair CLR 75.4 70 83% 76 30.01 0.0
02 03:35 Calm 10.00 Fair CLR 74.5 69.8 85% 30 0.0
02 03:15 S 6 10.00 Fair CLR 75.4 70.5 85% 76 30 0.0
02 02:55 S 3 10.00 Fair CLR 76.1 71.1 84% 77 30 0.0
02 02:35 S 5 10.00 Fair CLR 75.2 70.9 87% 75 30.01 0.0
02 02:15 S 5 10.00 Fair CLR 76.8 71.6 84% 78 30.01 0.0
02 01:55 S 3 10.00 Fair CLR 75.6 71.6 86.9 74.5 88% 75 30.01 0.0
02 01:35 S 3 10.00 Fair CLR 74.5 70.9 89% 30.01 0.0
02 01:15 Calm 10.00 Fair CLR 75.9 71.4 86% 76 30 0.0
02 00:55 S 3 10.00 Fair CLR 76.1 71.2 85% 77 30.01 0.0
02 00:35 S 3 10.00 Fair CLR 76.1 71.6 86% 77 30 0.0
02 00:15 S 3 10.00 Fair CLR 77.2 72 84% 79 30.01 0.0
01 23:55 S 5 10.00 Fair CLR 77.2 72 84% 79 30.01 0.0
01 23:35 S 3 10.00 Fair CLR 78.3 72.5 83% 81 30.01 0.0
01 23:15 S 3 10.00 Fair CLR 78.4 72.5 82% 81 30.01 0.0
01 22:55 S 3 10.00 Fair CLR 78.8 72.9 82% 82 30.01 0.0
01 22:35 S 5 10.00 Fair CLR 79.9 73 80% 84 30.01 0.0
01 22:15 S 5 10.00 Fair CLR 79.7 73.4 81% 84 30 0.0
01 21:55 S 5 10.00 Partly Cloudy SCT095 81.3 73.8 78% 87 30 0.0
01 21:35 S 3 10.00 Partly Cloudy SCT085 82.4 73.8 75% 88 30 0.0
01 21:15 Calm 10.00 Partly Cloudy SCT085 83.5 73.8 73% 90 29.99 0.0
01 20:55 Calm 10.00 Fair CLR 83.5 73.8 73% 90 29.99 0.0
01 20:35 S 3 10.00 Fair CLR 84.7 73.9 70% 92 29.99 0.0
01 20:15 S 3 10.00 Fair CLR 85.6 74.3 69% 94 29.99 0.0
01 19:55 S 5 10.00 Fair CLR 87.1 74.5 92.8 87.1 66% 96 29.99 0.0
01 19:35 S 6 10.00 Fair CLR 88.2 74.1 63% 97 29.99 0.0
01 19:15 SW 6 10.00 Fair CLR 89.6 73.8 60% 99 29.99 0.0
01 18:55 SW 7 10.00 Fair CLR 90.5 72.7 56% 99 29.99 0.0
01 18:35 SW 7 10.00 Fair CLR 91.4 73.4 56% 100 29.99 0.0
01 18:15 SW 7 10.00 Fair CLR 91.8 73.8 56% 101 29.99 0.0
01 17:55 SW 9 10.00 Fair CLR 91.9 73.4 55% 101 29.99 0.0
01 17:35 SW 7 10.00 Fair CLR 92.3 73.2 54% 101 29.99 0.0
01 17:15 SW 9 10.00 Fair CLR 92.3 72.7 53% 101 29.99 0.0
01 16:55 SW 7 10.00 Fair CLR 92.7 73.6 54% 102 29.99 0.0
01 16:35 SW 7 10.00 Fair CLR 92.5 72.7 53% 101 29.99 0.0
01 16:15 SW 7 10.00 Fair CLR 92.3 73 53% 101 29.99 0.0
01 15:55 SW 8 10.00 Fair CLR 92.3 73 53% 101 30 0.0
01 15:35 SW 7 10.00 Fair CLR 91.6 72.9 54% 100 30 0.0
01 15:15 SW 8 10.00 Fair CLR 90.9 72.3 55% 99 30.01 0.0
01 14:55 W 9 10.00 Fair CLR 91.4 72.5 54% 99 30.01 0.0
01 14:35 SW 7 10.00 Fair CLR 90.7 72.1 55% 98 30.01 0.0
01 14:15 SW 8 10.00 Fair CLR 90.5 72.9 56% 99 30.01 0.0
01 13:55 SW 8 10.00 Fair CLR 89.2 71.8 89.6 72.5 56% 96 30.01 0.0
01 13:35 SW 7 10.00 Fair CLR 89.4 72.1 57% 97 30.01 0.0
01 13:15 W 8 10.00 Fair CLR 88.5 71.4 57% 95 30.02 0.0
01 12:55 SW 7 10.00 Fair CLR 87.4 71.6 59% 94 30.02 0.0
01 12:35 SW 8 10.00 Fair CLR 85.8 71.2 62% 91 30.03 0.0
01 12:15 SW 7 10.00 Fair CLR 84.9 70.9 63% 90 30.03 0.0
01 11:55 SW 8 10.00 Fair CLR 84.2 70 62% 89 30.03 0.0
01 11:35 SW 9 10.00 Fair CLR 84 70 63% 88 30.03 0.0
01 11:15 SW 7 10.00 Fair CLR 83.5 69.6 63% 87 30.03 0.0
01 10:55 SW 7 10.00 Fair CLR 82.8 69.4 64% 86 30.03 0.0
01 10:35 SW 9 10.00 Fair CLR 82 69.6 66% 86 30.03 0.0
01 10:15 SW 7 10.00 Fair CLR 80.8 69.4 69% 84 30.03 0.0
Date Time (edt) Wind (mph) Vis. (mi.) Weather Sky Cond. Air Dwpt Max. Min. Relative Humidity Wind Chill (°F) Heat Index (°F) altimeter (in) sea level (mb) 1 hr 3 hr 6 hr
6 hour
Temperature (ºF) Pressure Precipitation (in)